createdAt,value
2023-04-12T00:00:45.831Z,2.93
2023-04-12T00:03:13.640Z,2.90
2023-04-12T00:05:47.075Z,2.77
2023-04-12T00:08:16.703Z,2.87
2023-04-12T00:10:44.539Z,3.30
2023-04-12T00:13:12.303Z,3.47
2023-04-12T00:15:40.060Z,3.33
2023-04-12T00:18:10.287Z,3.80
2023-04-12T00:20:38.681Z,3.53
2023-04-12T00:23:06.810Z,3.30
2023-04-12T00:25:35.861Z,3.40
2023-04-12T00:28:03.687Z,2.80
2023-04-12T00:30:31.402Z,3.00
2023-04-12T00:33:00.022Z,3.00
2023-04-12T00:35:27.946Z,2.60
2023-04-12T00:37:55.733Z,2.87
2023-04-12T00:40:23.635Z,3.50
2023-04-12T00:42:52.718Z,3.30
2023-04-12T00:45:21.373Z,2.87
2023-04-12T00:47:49.355Z,2.90
2023-04-12T00:50:17.126Z,2.80
2023-04-12T00:52:44.864Z,2.80
2023-04-12T00:55:12.656Z,2.77
2023-04-12T00:57:41.244Z,2.93
2023-04-12T01:00:13.677Z,2.90
2023-04-12T01:02:42.825Z,3.20
2023-04-12T01:05:14.681Z,2.83
2023-04-12T01:07:51.446Z,2.80
2023-04-12T01:10:30.945Z,2.97
2023-04-12T01:13:06.560Z,2.60
2023-04-12T01:15:40.857Z,2.80
2023-04-12T01:18:11.844Z,2.80
2023-04-12T01:20:48.325Z,2.70
2023-04-12T01:23:45.661Z,2.50
2023-04-12T01:26:28.281Z,2.23
2023-04-12T01:28:58.612Z,3.00
2023-04-12T01:31:27.657Z,3.30
2023-04-12T01:33:58.131Z,3.20
2023-04-12T01:36:28.984Z,3.20
2023-04-12T01:38:58.385Z,2.90
2023-04-12T01:41:26.124Z,3.33
2023-04-12T01:43:53.884Z,2.90
2023-04-12T01:46:24.821Z,3.13
2023-04-12T01:48:54.575Z,3.00
2023-04-12T01:51:32.715Z,2.80
2023-04-12T01:54:03.962Z,2.80
2023-04-12T01:56:38.416Z,3.10
2023-04-12T01:59:09.975Z,3.00
2023-04-12T02:01:39.417Z,3.23
2023-04-12T02:04:09.281Z,2.97
2023-04-12T02:06:38.571Z,3.13
2023-04-12T02:09:06.808Z,3.07
2023-04-12T02:11:34.706Z,3.07
2023-04-12T02:14:02.431Z,3.13
2023-04-12T02:16:32.462Z,2.83
2023-04-12T02:19:02.060Z,3.23
2023-04-12T02:21:29.791Z,3.10
2023-04-12T02:23:57.696Z,3.30
2023-04-12T02:26:25.792Z,2.90
2023-04-12T02:28:53.809Z,3.07
2023-04-12T02:31:21.623Z,2.90
2023-04-12T02:33:49.563Z,2.70
2023-04-12T02:36:19.111Z,2.80
2023-04-12T02:38:46.882Z,3.00
2023-04-12T02:41:18.608Z,3.03
2023-04-12T02:43:46.797Z,3.63
2023-04-12T02:46:19.470Z,3.27
2023-04-12T02:48:47.559Z,2.67
2023-04-12T02:51:15.458Z,3.00
2023-04-12T02:53:44.680Z,2.93
2023-04-12T02:56:13.040Z,3.00
2023-04-12T02:58:41.097Z,3.57
2023-04-12T03:01:08.869Z,2.80
2023-04-12T03:03:37.084Z,3.20
2023-04-12T03:06:06.268Z,3.37
2023-04-12T03:08:33.972Z,3.20
2023-04-12T03:11:03.049Z,3.00
2023-04-12T03:13:30.904Z,3.23
2023-04-12T03:16:00.805Z,5.00
2023-04-12T03:18:28.602Z,3.40
2023-04-12T03:20:56.325Z,3.97
2023-04-12T03:23:24.074Z,3.90
2023-04-12T03:25:51.813Z,4.20
2023-04-12T03:28:21.720Z,4.23
2023-04-12T03:30:49.499Z,3.73
2023-04-12T03:33:17.284Z,3.97
2023-04-12T03:35:45.273Z,3.47
2023-04-12T03:38:13.034Z,3.57
2023-04-12T03:40:40.767Z,3.60
2023-04-12T03:43:08.535Z,3.80
2023-04-12T03:45:37.617Z,4.10
2023-04-12T03:48:05.966Z,3.90
2023-04-12T03:50:42.106Z,5.00
2023-04-12T03:53:09.830Z,4.53
2023-04-12T03:55:38.340Z,4.60
2023-04-12T03:58:06.185Z,3.77
2023-04-12T04:00:33.986Z,3.70
2023-04-12T04:03:05.042Z,3.80
2023-04-12T04:05:33.096Z,3.97
2023-04-12T04:08:02.489Z,3.73
2023-04-12T04:10:30.801Z,3.87
2023-04-12T04:12:58.721Z,4.23
2023-04-12T04:15:26.910Z,4.37
2023-04-12T04:17:54.829Z,3.73
2023-04-12T04:20:25.032Z,3.90
2023-04-12T04:22:54.113Z,4.73
2023-04-12T04:25:23.235Z,3.90
2023-04-12T04:27:51.050Z,4.10
2023-04-12T04:30:18.941Z,4.57
2023-04-12T04:32:48.302Z,3.30
2023-04-12T04:35:16.783Z,3.70
2023-04-12T04:37:45.942Z,4.13
2023-04-12T04:40:13.854Z,4.50
2023-04-12T04:42:42.996Z,4.47
2023-04-12T04:45:14.730Z,4.57
2023-04-12T04:47:42.823Z,3.73
2023-04-12T04:50:11.134Z,3.97
2023-04-12T04:52:39.420Z,4.67
2023-04-12T04:55:11.453Z,4.07
2023-04-12T04:57:39.432Z,4.53
2023-04-12T05:00:11.469Z,3.93
2023-04-12T05:02:40.109Z,3.90
2023-04-12T05:05:08.964Z,3.50
2023-04-12T05:07:37.302Z,3.63
2023-04-12T05:10:05.625Z,4.30
2023-04-12T05:12:34.739Z,3.77
2023-04-12T05:17:34.289Z,4.43
2023-04-12T05:20:02.119Z,4.07
2023-04-12T05:22:31.096Z,4.67
2023-04-12T05:24:58.846Z,4.67
2023-04-12T05:27:27.732Z,5.10
2023-04-12T05:29:57.581Z,4.90
2023-04-12T05:32:25.976Z,5.30
2023-04-12T05:34:53.730Z,6.53
2023-04-12T05:37:21.529Z,6.50
2023-04-12T05:39:49.283Z,7.47
2023-04-12T05:42:17.006Z,7.73
2023-04-12T05:44:47.429Z,7.50
2023-04-12T05:47:17.668Z,5.63
2023-04-12T05:49:45.414Z,6.40
2023-04-12T05:52:13.142Z,7.07
2023-04-12T05:54:41.799Z,6.60
2023-04-12T05:57:09.666Z,6.40
2023-04-12T05:59:37.418Z,6.93
2023-04-12T06:02:05.244Z,6.73
2023-04-12T06:04:48.832Z,7.30
2023-04-12T06:07:19.448Z,8.07
2023-04-12T06:09:47.377Z,9.43
2023-04-12T06:12:15.260Z,8.77
2023-04-12T06:14:42.975Z,7.67
2023-04-12T06:17:10.742Z,7.77
2023-04-12T06:19:39.846Z,6.40
2023-04-12T06:22:07.915Z,6.03
2023-04-12T06:24:35.768Z,5.17
2023-04-12T06:27:03.500Z,5.83
2023-04-12T06:29:31.321Z,6.20
2023-04-12T06:31:59.303Z,6.00
2023-04-12T06:34:27.057Z,5.43
2023-04-12T06:36:57.408Z,5.20
2023-04-12T06:39:25.208Z,5.13
2023-04-12T06:41:53.026Z,4.97
2023-04-12T06:44:21.004Z,5.40
2023-04-12T06:46:48.926Z,5.43
2023-04-12T06:49:16.760Z,4.83
2023-04-12T06:51:44.762Z,4.63
2023-04-12T06:54:14.828Z,3.60
2023-04-12T06:56:42.575Z,3.67
2023-04-12T06:59:10.522Z,3.70
2023-04-12T07:01:38.460Z,2.83
2023-04-12T07:04:06.592Z,3.53
2023-04-12T07:06:34.432Z,2.83
2023-04-12T07:09:02.141Z,2.97
2023-04-12T07:11:31.812Z,2.27
2023-04-12T07:14:00.179Z,2.10
2023-04-12T07:16:28.522Z,1.90
2023-04-12T07:18:56.635Z,2.00
2023-04-12T07:21:24.634Z,1.67
2023-04-12T07:23:52.713Z,2.00
2023-04-12T07:26:21.625Z,1.70
2023-04-12T07:28:51.053Z,1.60
2023-04-12T07:31:19.262Z,1.70
2023-04-12T07:33:47.127Z,1.33
2023-04-12T07:36:16.859Z,1.53
2023-04-12T07:38:44.621Z,1.73
2023-04-12T07:41:12.413Z,1.30
2023-04-12T07:43:40.261Z,1.40
2023-04-12T07:46:09.635Z,1.57
2023-04-12T07:48:37.380Z,1.10
2023-04-12T07:51:06.234Z,1.50
2023-04-12T07:53:34.068Z,1.43
2023-04-12T07:56:05.072Z,1.40
2023-04-12T07:58:34.902Z,1.53
2023-04-12T08:01:02.632Z,1.50
2023-04-12T08:03:32.033Z,1.20
2023-04-12T08:06:00.291Z,1.43
2023-04-12T08:08:28.091Z,1.20
2023-04-12T08:10:56.055Z,1.38
2023-04-12T08:13:23.948Z,1.38
2023-04-12T08:15:52.300Z,1.33
2023-04-12T08:18:21.170Z,1.30
2023-04-12T08:20:50.268Z,1.20
2023-04-12T08:23:18.038Z,0.98
2023-04-12T08:25:46.041Z,1.08
2023-04-12T08:28:13.921Z,1.63
2023-04-12T08:30:41.682Z,1.25
2023-04-12T08:33:09.424Z,1.27
2023-04-12T08:35:37.435Z,1.40
2023-04-12T08:38:07.865Z,1.23
2023-04-12T08:40:36.302Z,1.20
2023-04-12T08:43:08.658Z,1.30
2023-04-12T08:45:37.469Z,1.40
2023-04-12T08:48:06.959Z,1.35
2023-04-12T08:50:34.939Z,1.38
2023-04-12T08:53:03.487Z,1.50
2023-04-12T08:55:32.576Z,1.30
2023-04-12T08:58:00.713Z,1.52
2023-04-12T09:00:28.559Z,1.50
2023-04-12T09:02:56.996Z,1.45
2023-04-12T09:05:30.206Z,1.70
2023-04-12T09:07:58.088Z,1.50
2023-04-12T09:10:36.393Z,1.58
2023-04-12T09:13:04.725Z,1.83
2023-04-12T09:15:32.854Z,1.50
2023-04-12T09:18:09.021Z,1.60
2023-04-12T09:20:37.454Z,1.80
2023-04-12T09:23:19.361Z,1.75
2023-04-12T09:25:51.791Z,1.65
2023-04-12T09:28:25.909Z,1.60
2023-04-12T09:30:54.572Z,1.80
2023-04-12T09:33:23.579Z,2.00
2023-04-12T09:35:51.892Z,1.60
2023-04-12T09:38:20.294Z,1.70
2023-04-12T09:40:50.268Z,1.85
2023-04-12T09:43:18.051Z,1.77
2023-04-12T09:45:45.864Z,1.73
2023-04-12T09:48:21.199Z,1.90
2023-04-12T09:50:49.275Z,1.77
2023-04-12T09:53:18.674Z,1.80
2023-04-12T09:55:49.558Z,1.58
2023-04-12T09:58:21.324Z,1.60
2023-04-12T10:00:49.438Z,1.77
2023-04-12T10:03:17.303Z,1.80
2023-04-12T10:05:45.835Z,1.83
2023-04-12T10:08:15.180Z,1.50
2023-04-12T10:10:46.080Z,1.50
2023-04-12T10:13:15.922Z,2.00
2023-04-12T10:15:46.419Z,1.75
2023-04-12T10:18:17.239Z,1.80
2023-04-12T10:20:46.628Z,1.70
2023-04-12T10:23:14.555Z,1.42
2023-04-12T10:25:43.782Z,1.60
2023-04-12T10:28:17.449Z,1.65
2023-04-12T10:30:45.656Z,1.80
2023-04-12T10:33:16.715Z,1.70
2023-04-12T10:35:55.721Z,1.88
2023-04-12T10:38:26.740Z,1.50
2023-04-12T10:41:18.054Z,1.67
2023-04-12T10:43:49.050Z,1.83
2023-04-12T10:46:48.320Z,1.60
2023-04-12T10:49:17.356Z,1.42
2023-04-12T10:52:13.585Z,1.55
2023-04-12T10:54:41.389Z,1.45
2023-04-12T10:57:29.119Z,1.50
2023-04-12T10:59:59.398Z,1.40
2023-04-12T11:02:27.532Z,1.63
2023-04-12T11:05:10.051Z,1.60
2023-04-12T11:07:42.399Z,1.50
2023-04-12T11:10:18.938Z,1.80
2023-04-12T11:12:50.483Z,1.60
2023-04-12T11:15:19.756Z,1.58
2023-04-12T11:17:55.315Z,2.33
2023-04-12T11:20:23.398Z,1.50
2023-04-12T11:22:51.788Z,1.60
2023-04-12T11:25:19.612Z,1.63
2023-04-12T11:27:51.881Z,1.60
2023-04-12T11:30:23.532Z,1.75
2023-04-12T11:32:51.591Z,1.13
2023-04-12T11:35:24.359Z,1.60
2023-04-12T11:37:52.225Z,1.65
2023-04-12T11:40:23.305Z,1.65
2023-04-12T11:42:51.142Z,1.90
2023-04-12T11:45:22.340Z,1.60
2023-04-12T11:47:52.313Z,1.50
2023-04-12T11:50:30.596Z,1.70
2023-04-12T11:53:11.068Z,1.45
2023-04-12T11:55:38.909Z,1.70
2023-04-12T11:58:07.380Z,1.60
2023-04-12T12:00:36.817Z,1.40
2023-04-12T12:03:08.237Z,1.70
2023-04-12T12:05:38.632Z,1.60
2023-04-12T12:08:07.884Z,1.77
2023-04-12T12:10:46.813Z,1.40
2023-04-12T12:13:23.668Z,1.65
2023-04-12T12:15:54.560Z,1.40
2023-04-12T12:18:27.234Z,1.50
2023-04-12T12:20:55.804Z,1.33
2023-04-12T12:23:33.678Z,1.40
2023-04-12T12:26:17.950Z,1.50
2023-04-12T12:28:50.948Z,1.40
2023-04-12T12:31:22.548Z,1.50
2023-04-12T12:33:54.548Z,1.70
2023-04-12T12:36:29.483Z,1.40
2023-04-12T12:38:57.389Z,1.48
2023-04-12T12:41:27.377Z,1.48
2023-04-12T12:43:55.126Z,1.40
2023-04-12T12:46:24.570Z,1.27
2023-04-12T12:48:53.483Z,1.48
2023-04-12T12:51:21.371Z,1.70
2023-04-12T12:53:49.239Z,1.80
2023-04-12T12:56:17.227Z,1.70
2023-04-12T12:58:45.266Z,1.52
2023-04-12T13:01:13.079Z,1.60
2023-04-12T13:03:42.262Z,1.80
2023-04-12T13:06:10.376Z,1.50
2023-04-12T13:08:38.230Z,1.60
2023-04-12T13:11:06.504Z,1.55
2023-04-12T13:13:34.262Z,1.48
2023-04-12T13:16:02.110Z,1.70
2023-04-12T13:18:29.870Z,1.63
2023-04-12T13:20:58.956Z,1.15
2023-04-12T13:23:26.796Z,1.10
2023-04-12T13:25:54.525Z,1.25
2023-04-12T13:28:22.596Z,1.45
2023-04-12T13:30:50.524Z,1.88
2023-04-12T13:33:21.601Z,1.23
2023-04-12T13:35:50.081Z,1.55
2023-04-12T13:38:19.137Z,1.30
2023-04-12T13:40:46.901Z,1.80
2023-04-12T13:43:14.742Z,1.48
2023-04-12T13:45:42.509Z,1.30
2023-04-12T13:48:10.363Z,1.60
2023-04-12T13:50:38.305Z,1.42
2023-04-12T13:53:06.218Z,1.60
2023-04-12T13:55:35.380Z,1.50
2023-04-12T13:58:03.269Z,1.73
2023-04-12T14:00:31.111Z,1.45
2023-04-12T14:02:59.030Z,1.70
2023-04-12T14:05:26.881Z,1.50
2023-04-12T14:07:55.683Z,1.60
2023-04-12T14:10:23.411Z,1.30
2023-04-12T14:12:52.574Z,1.30
2023-04-12T14:15:20.381Z,1.88
2023-04-12T14:17:48.357Z,2.20
2023-04-12T14:20:19.197Z,1.70
2023-04-12T14:22:47.434Z,1.45
2023-04-12T14:25:15.408Z,1.40
2023-04-12T14:27:43.215Z,2.25
2023-04-12T14:30:12.764Z,1.30
2023-04-12T14:32:41.243Z,1.63
2023-04-12T14:35:10.504Z,1.90
2023-04-12T14:37:38.306Z,1.92
2023-04-12T14:40:08.387Z,1.90
2023-04-12T14:42:37.551Z,2.95
2023-04-12T14:45:08.042Z,2.30
2023-04-12T14:47:37.310Z,1.83
2023-04-12T14:50:05.565Z,2.03
2023-04-12T14:52:33.349Z,2.05
2023-04-12T14:55:01.539Z,2.00
2023-04-12T14:57:29.298Z,2.03
2023-04-12T14:59:57.275Z,1.75
2023-04-12T15:02:26.190Z,1.85
2023-04-12T15:04:55.682Z,3.00
2023-04-12T15:07:23.617Z,2.42
2023-04-12T15:09:51.385Z,2.83
2023-04-12T15:12:19.220Z,2.50
2023-04-12T15:14:47.232Z,2.17
2023-04-12T15:17:15.174Z,2.17
2023-04-12T15:19:42.901Z,2.13
2023-04-12T15:22:12.512Z,2.00
2023-04-12T15:24:40.359Z,2.25
2023-04-12T15:27:08.223Z,2.10
2023-04-12T15:29:36.471Z,2.40
2023-04-12T15:32:04.304Z,2.22
2023-04-12T15:34:33.910Z,2.47
2023-04-12T15:37:04.986Z,2.53
2023-04-12T15:39:35.638Z,2.75
2023-04-12T15:42:03.467Z,2.67
2023-04-12T15:44:32.106Z,2.20
2023-04-12T15:47:10.349Z,2.53
2023-04-12T15:49:38.551Z,2.50
2023-04-12T15:52:06.549Z,2.35
2023-04-12T15:54:43.390Z,2.70
2023-04-12T15:57:11.941Z,3.00
2023-04-12T15:59:41.750Z,3.60
2023-04-12T16:02:10.340Z,3.13
2023-04-12T16:04:39.317Z,3.50
2023-04-12T16:07:07.426Z,2.92
2023-04-12T16:09:37.623Z,2.88
2023-04-12T16:12:05.985Z,2.60
2023-04-12T16:14:33.860Z,3.05
2023-04-12T16:17:01.946Z,3.60
2023-04-12T16:19:29.754Z,3.10
2023-04-12T16:21:57.850Z,2.78
2023-04-12T16:24:25.758Z,3.40
2023-04-12T16:26:54.868Z,3.45
2023-04-12T16:29:22.652Z,3.75
2023-04-12T16:31:51.593Z,3.35
2023-04-12T16:34:21.856Z,3.47
2023-04-12T16:36:49.902Z,3.40
2023-04-12T16:39:17.644Z,3.40
2023-04-12T16:41:47.114Z,3.28
2023-04-12T16:44:19.365Z,3.10
2023-04-12T16:46:48.806Z,2.60
2023-04-12T16:49:19.655Z,2.70
2023-04-12T16:51:47.687Z,2.35
2023-04-12T16:54:15.666Z,2.55
2023-04-12T16:56:43.453Z,2.63
2023-04-12T16:59:11.208Z,2.30
2023-04-12T17:01:40.476Z,2.53
2023-04-12T17:04:08.643Z,2.20
2023-04-12T17:06:36.720Z,2.65
2023-04-12T17:09:04.927Z,2.30
2023-04-12T17:11:33.121Z,2.35
2023-04-12T17:14:00.935Z,2.67
2023-04-12T17:16:29.175Z,2.47
2023-04-12T17:18:58.504Z,2.60
2023-04-12T17:21:26.826Z,2.72
2023-04-12T17:23:56.107Z,2.60
2023-04-12T17:26:26.060Z,2.40
2023-04-12T17:28:54.654Z,2.20
2023-04-12T17:31:22.616Z,1.95
2023-04-12T17:33:50.462Z,2.40
2023-04-12T17:36:19.564Z,1.90
2023-04-12T17:38:47.315Z,2.00
2023-04-12T17:41:15.050Z,2.17
2023-04-12T17:43:42.978Z,2.10
2023-04-12T17:46:10.904Z,1.80
2023-04-12T17:48:39.878Z,2.10
2023-04-12T17:51:09.780Z,2.60
2023-04-12T17:53:38.981Z,2.20
2023-04-12T17:56:08.141Z,2.30
2023-04-12T17:58:36.392Z,2.30
2023-04-12T18:01:04.320Z,2.05
2023-04-12T18:03:32.557Z,2.00
2023-04-12T18:06:01.009Z,2.22
2023-04-12T18:08:28.807Z,2.22
2023-04-12T18:11:00.626Z,2.13
2023-04-12T18:13:28.709Z,2.13
2023-04-12T18:15:56.570Z,2.30
2023-04-12T18:18:24.474Z,2.28
2023-04-12T18:20:52.866Z,2.58
2023-04-12T18:23:21.391Z,2.72
2023-04-12T18:25:49.177Z,2.35
2023-04-12T18:28:18.407Z,2.20
2023-04-12T18:30:46.498Z,2.20
2023-04-12T18:33:14.307Z,2.43
2023-04-12T18:35:42.341Z,2.30
2023-04-12T18:38:10.119Z,2.13
2023-04-12T18:40:38.858Z,2.15
2023-04-12T18:43:08.001Z,2.08
2023-04-12T18:45:41.064Z,2.33
2023-04-12T18:48:09.993Z,2.05
2023-04-12T18:50:39.297Z,2.33
2023-04-12T18:53:07.875Z,2.30
2023-04-12T18:55:35.822Z,2.00
2023-04-12T18:58:03.620Z,2.20
2023-04-12T19:00:31.764Z,2.20
2023-04-12T19:03:01.185Z,1.80
2023-04-12T19:05:29.018Z,2.20
2023-04-12T19:07:57.058Z,2.03
2023-04-12T19:10:30.591Z,2.27
2023-04-12T19:12:58.773Z,2.45
2023-04-12T19:15:27.180Z,2.10
2023-04-12T19:17:55.095Z,2.40
2023-04-12T19:20:24.612Z,2.40
2023-04-12T19:22:52.720Z,2.23
2023-04-12T19:25:20.646Z,2.00
2023-04-12T19:27:48.513Z,2.17
2023-04-12T19:30:17.290Z,2.07
2023-04-12T19:32:45.174Z,2.17
2023-04-12T19:35:14.053Z,1.97
2023-04-12T19:37:43.625Z,2.20
2023-04-12T19:40:13.539Z,2.30
2023-04-12T19:42:42.118Z,2.10
2023-04-12T19:45:10.582Z,2.57
2023-04-12T19:47:44.548Z,2.47
2023-04-12T19:50:13.127Z,2.10
2023-04-12T19:52:41.727Z,2.30
2023-04-12T19:55:12.115Z,1.90
2023-04-12T19:57:40.935Z,2.10
2023-04-12T20:00:12.869Z,1.83
2023-04-12T20:02:40.788Z,1.97
2023-04-12T20:05:09.137Z,2.03
2023-04-12T20:07:37.755Z,2.30
2023-04-12T20:10:06.456Z,2.10
2023-04-12T20:12:35.541Z,1.97
2023-04-12T20:15:04.379Z,2.20
2023-04-12T20:17:32.883Z,1.77
2023-04-12T20:20:00.981Z,1.80
2023-04-12T20:22:28.744Z,2.10
2023-04-12T20:24:58.164Z,2.20
2023-04-12T20:27:27.173Z,2.00
2023-04-12T20:29:56.325Z,2.57
2023-04-12T20:32:24.356Z,2.50
2023-04-12T20:34:52.063Z,1.90
2023-04-12T20:37:20.005Z,2.20
2023-04-12T20:39:47.714Z,2.50
2023-04-12T20:42:18.665Z,2.30
2023-04-12T20:44:46.914Z,2.40
2023-04-12T20:47:16.250Z,2.70
2023-04-12T20:49:46.095Z,2.37
2023-04-12T20:52:16.865Z,2.40
2023-04-12T20:54:45.636Z,2.40
2023-04-12T20:57:18.526Z,2.50
2023-04-12T20:59:46.762Z,2.88
2023-04-12T21:02:16.789Z,2.90
2023-04-12T21:04:45.139Z,2.97
2023-04-12T21:07:13.180Z,3.13
2023-04-12T21:09:40.982Z,3.50
2023-04-12T21:12:11.122Z,3.43
2023-04-12T21:14:39.193Z,3.10
2023-04-12T21:17:07.207Z,3.13
2023-04-12T21:19:40.976Z,3.20
2023-04-12T21:22:09.407Z,3.40
2023-04-12T21:24:38.817Z,3.30
2023-04-12T21:27:08.295Z,3.37
2023-04-12T21:29:41.331Z,3.37
2023-04-12T21:32:09.799Z,3.60
2023-04-12T21:34:39.199Z,3.47
2023-04-12T21:37:07.036Z,3.53
2023-04-12T21:39:34.781Z,3.50
2023-04-12T21:42:03.167Z,3.80
2023-04-12T21:44:32.051Z,3.30
2023-04-12T21:46:59.753Z,3.50
2023-04-12T21:49:27.647Z,3.30
2023-04-12T21:51:57.076Z,3.40
2023-04-12T21:54:24.976Z,3.70
2023-04-12T21:56:52.700Z,4.00
2023-04-12T21:59:20.487Z,3.90
2023-04-12T22:01:48.297Z,3.70
2023-04-12T22:04:16.351Z,3.50
2023-04-12T22:06:44.530Z,3.33
2023-04-12T22:09:13.600Z,3.57
2023-04-12T22:11:41.315Z,3.43
2023-04-12T22:14:09.066Z,3.50
2023-04-12T22:16:36.860Z,3.90
2023-04-12T22:19:04.684Z,3.70
2023-04-12T22:21:33.444Z,3.83
2023-04-12T22:24:01.367Z,3.97
2023-04-12T22:26:31.422Z,4.13
2023-04-12T22:28:59.166Z,4.17
2023-04-12T22:31:27.590Z,4.00
2023-04-12T22:33:55.758Z,4.50
2023-04-12T22:36:28.645Z,4.53
2023-04-12T22:38:57.365Z,4.37
2023-04-12T22:41:28.503Z,4.70
2023-04-12T22:44:01.326Z,4.77
2023-04-12T22:46:32.057Z,4.80
2023-04-12T22:49:01.506Z,4.90
2023-04-12T22:51:29.295Z,4.80
2023-04-12T22:53:57.243Z,5.40
2023-04-12T22:56:25.981Z,5.23
2023-04-12T22:58:53.716Z,5.30
2023-04-12T23:01:22.841Z,5.20
2023-04-12T23:03:50.716Z,5.57
2023-04-12T23:06:19.632Z,5.70
2023-04-12T23:08:49.618Z,5.30
2023-04-12T23:11:17.343Z,5.27
2023-04-12T23:13:45.063Z,6.07
2023-04-12T23:16:12.815Z,6.00
2023-04-12T23:18:41.901Z,5.40
2023-04-12T23:21:11.862Z,5.77
2023-04-12T23:23:39.613Z,5.37
2023-04-12T23:26:07.617Z,5.90
2023-04-12T23:28:35.552Z,5.47
2023-04-12T23:31:03.348Z,5.57
2023-04-12T23:33:31.189Z,5.63
2023-04-12T23:36:03.034Z,4.60
2023-04-12T23:38:33.818Z,5.17
2023-04-12T23:41:02.170Z,5.07
2023-04-12T23:43:30.927Z,5.30
2023-04-12T23:45:58.758Z,4.93
2023-04-12T23:48:27.221Z,5.60
2023-04-12T23:50:54.957Z,5.60
2023-04-12T23:53:24.045Z,5.97
2023-04-12T23:55:53.932Z,5.83
2023-04-12T23:58:22.396Z,6.10
